Time;durP1;ratioP1;P1;durP2;ratioP2;P2;SDS_P1;SDS_P2;PMS_P1;PMS_P2;Temp;Humidity;BMP_temperature;BMP_pressure;BME280_temperature;BME280_humidity;BME280_pressure;Samples;Min_cycle;Max_cycle;Signal;HPM_P1;HPM_P2
2023/07/31 00:01:02;;;;;;;7.70;5.40;;;;;;;;;;5073336;28;20059;-78
2023/07/31 00:03:28;;;;;;;7.93;5.95;;;;;;;;;;5090628;28;20044;-78
2023/07/31 00:05:55;;;;;;;8.57;5.88;;;;;;;;;;5053387;28;20048;-78
2023/07/31 00:08:22;;;;;;;8.10;5.80;;;;;;;;;;5074268;28;20056;-78
2023/07/31 00:10:48;;;;;;;10.02;5.78;;;;;;;;;;5072373;28;20051;-78
2023/07/31 00:13:14;;;;;;;9.48;6.28;;;;;;;;;;5091103;28;20346;-78
2023/07/31 00:15:40;;;;;;;6.97;5.45;;;;;;;;;;5091447;28;20139;-78
2023/07/31 00:18:06;;;;;;;7.25;5.93;;;;;;;;;;5073791;28;20081;-78
2023/07/31 00:20:32;;;;;;;8.63;5.40;;;;;;;;;;5091459;28;20040;-78
2023/07/31 00:22:58;;;;;;;9.35;5.32;;;;;;;;;;5090617;28;20415;-78
2023/07/31 00:25:24;;;;;;;6.10;5.00;;;;;;;;;;5091476;28;20141;-78
2023/07/31 00:27:50;;;;;;;6.38;5.07;;;;;;;;;;5073880;28;20054;-78
2023/07/31 00:30:17;;;;;;;6.00;4.55;;;;;;;;;;5094093;28;20459;-77
2023/07/31 00:32:43;;;;;;;5.47;4.00;;;;;;;;;;5093638;28;20443;-78
2023/07/31 00:35:09;;;;;;;10.30;4.32;;;;;;;;;;5094916;28;20069;-77
2023/07/31 00:37:35;;;;;;;6.00;3.83;;;;;;;;;;5076585;28;20554;-78
2023/07/31 00:40:03;;;;;;;5.22;4.10;;;;;;;;;;5079294;28;20037;-77
2023/07/31 00:42:29;;;;;;;6.88;4.38;;;;;;;;;;5077726;28;20080;-77
2023/07/31 00:44:55;;;;;;;6.70;4.18;;;;;;;;;;5076732;28;20500;-78
2023/07/31 00:47:22;;;;;;;5.35;4.20;;;;;;;;;;5094300;28;20109;-78
2023/07/31 00:49:48;;;;;;;6.00;4.10;;;;;;;;;;5092744;28;20039;-77
2023/07/31 00:52:14;;;;;;;6.82;4.32;;;;;;;;;;5077184;28;20574;-78
2023/07/31 00:54:40;;;;;;;6.03;4.70;;;;;;;;;;5094760;28;20511;-77
2023/07/31 00:57:08;;;;;;;5.72;4.30;;;;;;;;;;5077087;28;20127;-78
2023/07/31 00:59:34;;;;;;;6.75;4.60;;;;;;;;;;5095007;28;20054;-77
2023/07/31 01:02:00;;;;;;;6.13;4.63;;;;;;;;;;5095166;28;20093;-77
2023/07/31 01:04:27;;;;;;;5.25;4.60;;;;;;;;;;5085413;28;20131;-78
2023/07/31 01:07:06;;;;;;;6.32;4.38;;;;;;;;;;5074530;28;20051;-77
2023/07/31 01:09:32;;;;;;;6.40;4.35;;;;;;;;;;5086264;28;20101;-78
2023/07/31 01:12:01;;;;;;;9.00;4.60;;;;;;;;;;5094735;28;20044;-78
2023/07/31 01:14:27;;;;;;;6.97;4.53;;;;;;;;;;5094099;28;20116;-78
2023/07/31 01:16:53;;;;;;;6.00;4.18;;;;;;;;;;5076605;28;20408;-77
2023/07/31 01:19:22;;;;;;;4.60;3.50;;;;;;;;;;5075362;28;20059;-77
2023/07/31 01:21:51;;;;;;;5.22;3.50;;;;;;;;;;5093355;28;20070;-78
2023/07/31 01:24:17;;;;;;;5.22;2.50;;;;;;;;;;5094049;28;20043;-77
2023/07/31 01:26:46;;;;;;;4.80;2.72;;;;;;;;;;5076272;28;20384;-77
2023/07/31 01:29:16;;;;;;;4.90;3.20;;;;;;;;;;5074281;28;20056;-77
2023/07/31 01:31:42;;;;;;;5.25;3.80;;;;;;;;;;5075053;28;20059;-76
2023/07/31 01:34:09;;;;;;;8.10;4.30;;;;;;;;;;5075846;28;20048;-76
2023/07/31 01:36:35;;;;;;;6.13;4.60;;;;;;;;;;5093975;28;20043;-76
2023/07/31 01:39:02;;;;;;;5.18;4.35;;;;;;;;;;5059258;28;20339;-76
2023/07/31 01:41:28;;;;;;;6.97;4.78;;;;;;;;;;5093001;28;20039;-77
2023/07/31 01:43:54;;;;;;;5.57;4.70;;;;;;;;;;5093853;28;20449;-76
2023/07/31 01:46:20;;;;;;;6.68;4.80;;;;;;;;;;5093638;28;20060;-76
2023/07/31 01:48:47;;;;;;;7.40;5.20;;;;;;;;;;5075775;28;20094;-76
2023/07/31 01:51:13;;;;;;;6.22;4.57;;;;;;;;;;5093942;28;20044;-77
2023/07/31 01:53:39;;;;;;;5.78;4.88;;;;;;;;;;5092189;28;20044;-77
2023/07/31 01:56:06;;;;;;;5.70;4.97;;;;;;;;;;5091815;28;20388;-76
2023/07/31 01:58:32;;;;;;;6.15;4.75;;;;;;;;;;5094181;28;20062;-76
2023/07/31 02:00:58;;;;;;;6.68;4.82;;;;;;;;;;5090478;28;20048;-76
2023/07/31 02:03:24;;;;;;;6.43;4.53;;;;;;;;;;5073382;28;20041;-76
2023/07/31 02:05:50;;;;;;;5.53;4.25;;;;;;;;;;5074954;28;20047;-76
2023/07/31 02:08:17;;;;;;;6.30;4.05;;;;;;;;;;5093954;28;20044;-77
2023/07/31 02:10:43;;;;;;;5.13;3.80;;;;;;;;;;5074420;28;20047;-76
2023/07/31 02:13:09;;;;;;;4.82;3.33;;;;;;;;;;5093543;28;20040;-77
2023/07/31 02:15:35;;;;;;;3.47;3.05;;;;;;;;;;5092969;28;20429;-77
2023/07/31 02:18:01;;;;;;;4.25;3.13;;;;;;;;;;5093918;28;20040;-76
2023/07/31 02:20:28;;;;;;;4.15;2.97;;;;;;;;;;5079658;28;20048;-74
2023/07/31 02:22:54;;;;;;;3.67;2.88;;;;;;;;;;5099439;28;20043;-75
2023/07/31 02:25:20;;;;;;;3.13;2.50;;;;;;;;;;5075562;28;20040;-76
2023/07/31 02:27:46;;;;;;;3.50;2.50;;;;;;;;;;5093960;28;20124;-76
2023/07/31 02:30:12;;;;;;;3.72;2.63;;;;;;;;;;5075327;28;20569;-76
2023/07/31 02:32:38;;;;;;;4.72;3.08;;;;;;;;;;5093258;28;20124;-76
2023/07/31 02:35:04;;;;;;;4.32;2.92;;;;;;;;;;5074762;28;20127;-76
2023/07/31 02:37:31;;;;;;;4.30;2.80;;;;;;;;;;5093387;28;20073;-77
2023/07/31 02:39:57;;;;;;;5.55;3.10;;;;;;;;;;5074588;28;20526;-77
2023/07/31 02:42:23;;;;;;;5.18;3.00;;;;;;;;;;5093273;28;20035;-77
2023/07/31 02:44:55;;;;;;;4.60;2.72;;;;;;;;;;5074061;28;20381;-77
2023/07/31 02:47:21;;;;;;;5.25;2.70;;;;;;;;;;5075397;28;20048;-77
2023/07/31 02:49:47;;;;;;;4.82;2.95;;;;;;;;;;5092896;28;20094;-77
2023/07/31 02:52:13;;;;;;;3.80;2.30;;;;;;;;;;5091093;28;20082;-77
2023/07/31 02:54:41;;;;;;;5.80;2.53;;;;;;;;;;5092557;28;20441;-77
2023/07/31 02:57:07;;;;;;;4.03;2.45;;;;;;;;;;5093303;28;20046;-77
2023/07/31 02:59:33;;;;;;;3.13;2.30;;;;;;;;;;5093005;28;20048;-78
2023/07/31 03:01:59;;;;;;;4.10;2.30;;;;;;;;;;5073945;28;20439;-77
2023/07/31 03:04:25;;;;;;;3.63;2.20;;;;;;;;;;5083198;28;20055;-77
2023/07/31 03:06:51;;;;;;;5.35;2.40;;;;;;;;;;5055072;28;20062;-78
2023/07/31 03:09:17;;;;;;;3.42;2.30;;;;;;;;;;5054418;28;20128;-77
2023/07/31 03:11:43;;;;;;;6.35;2.50;;;;;;;;;;5075487;28;20090;-78
2023/07/31 03:14:09;;;;;;;3.72;2.30;;;;;;;;;;5092544;28;20039;-77
2023/07/31 03:16:36;;;;;;;3.40;2.33;;;;;;;;;;5092089;28;20493;-78
2023/07/31 03:19:02;;;;;;;5.28;2.75;;;;;;;;;;5092526;28;20059;-77
2023/07/31 03:21:28;;;;;;;3.78;2.20;;;;;;;;;;5073513;28;20047;-77
2023/07/31 03:23:54;;;;;;;3.95;2.33;;;;;;;;;;5092208;28;20407;-77
2023/07/31 03:26:20;;;;;;;3.42;1.90;;;;;;;;;;5074213;28;20047;-77
2023/07/31 03:28:46;;;;;;;3.55;1.98;;;;;;;;;;5092383;28;20044;-77
2023/07/31 03:31:13;;;;;;;3.63;2.05;;;;;;;;;;5073561;28;20457;-77
2023/07/31 03:33:39;;;;;;;3.45;1.95;;;;;;;;;;5092466;28;20054;-77
2023/07/31 03:36:05;;;;;;;3.58;1.90;;;;;;;;;;5073030;28;20044;-77
2023/07/31 03:38:32;;;;;;;3.95;2.10;;;;;;;;;;5092319;28;20044;-77
2023/07/31 03:40:58;;;;;;;3.67;2.10;;;;;;;;;;5091992;28;20076;-77
2023/07/31 03:43:25;;;;;;;3.88;2.17;;;;;;;;;;5091059;28;20048;-77
2023/07/31 03:45:51;;;;;;;4.85;2.50;;;;;;;;;;5090873;28;20055;-77
2023/07/31 03:48:17;;;;;;;5.40;2.20;;;;;;;;;;5091941;28;20076;-77
2023/07/31 03:50:43;;;;;;;5.25;2.30;;;;;;;;;;5073448;28;20052;-77
2023/07/31 03:53:09;;;;;;;4.22;2.28;;;;;;;;;;5092038;28;20078;-77
2023/07/31 03:55:36;;;;;;;5.68;2.17;;;;;;;;;;5073663;28;20098;-77
2023/07/31 03:58:02;;;;;;;4.70;2.30;;;;;;;;;;5092074;28;20109;-77
2023/07/31 04:00:28;;;;;;;6.38;2.28;;;;;;;;;;5091333;28;20047;-77
2023/07/31 04:02:54;;;;;;;4.72;2.20;;;;;;;;;;5073473;28;20045;-78
2023/07/31 04:05:20;;;;;;;4.85;2.38;;;;;;;;;;5091030;28;20063;-76
2023/07/31 04:07:46;;;;;;;5.57;2.58;;;;;;;;;;5095853;28;20075;-76
2023/07/31 04:10:12;;;;;;;5.22;2.38;;;;;;;;;;5093061;28;20040;-76
2023/07/31 04:12:38;;;;;;;4.70;2.10;;;;;;;;;;5076181;28;20051;-77
2023/07/31 04:15:05;;;;;;;5.13;2.40;;;;;;;;;;5095478;28;20044;-77
2023/07/31 04:17:31;;;;;;;4.70;2.22;;;;;;;;;;5077481;28;20040;-77
2023/07/31 04:19:57;;;;;;;4.45;2.40;;;;;;;;;;5077710;28;20162;-77
2023/07/31 04:22:23;;;;;;;3.13;2.00;;;;;;;;;;5061078;28;20590;-77
2023/07/31 04:24:49;;;;;;;4.68;2.30;;;;;;;;;;5095350;28;20044;-77
2023/07/31 04:27:15;;;;;;;4.10;2.10;;;;;;;;;;5096145;28;20036;-77
2023/07/31 04:29:42;;;;;;;3.90;2.10;;;;;;;;;;5095407;28;20112;-77
2023/07/31 04:32:08;;;;;;;4.30;2.00;;;;;;;;;;5095917;28;20094;-77
2023/07/31 04:34:34;;;;;;;3.42;1.88;;;;;;;;;;5094975;28;20036;-77
2023/07/31 04:37:01;;;;;;;5.22;2.17;;;;;;;;;;5060682;28;20043;-77
2023/07/31 04:39:27;;;;;;;5.05;1.95;;;;;;;;;;5095458;28;20149;-77
2023/07/31 04:41:53;;;;;;;3.40;1.80;;;;;;;;;;5095520;28;20052;-77
2023/07/31 04:44:19;;;;;;;6.55;2.20;;;;;;;;;;5094859;28;20291;-76
2023/07/31 04:46:45;;;;;;;3.47;1.80;;;;;;;;;;5095229;28;20048;-76
2023/07/31 04:49:12;;;;;;;2.40;1.60;;;;;;;;;;5095397;28;20083;-77
2023/07/31 04:51:38;;;;;;;3.65;2.00;;;;;;;;;;5076799;28;20416;-77
2023/07/31 04:54:04;;;;;;;2.50;1.50;;;;;;;;;;5095290;28;20036;-77
2023/07/31 04:56:30;;;;;;;3.35;1.70;;;;;;;;;;5095043;28;20055;-77
2023/07/31 04:58:56;;;;;;;3.15;2.00;;;;;;;;;;5095264;28;20051;-77
2023/07/31 05:01:22;;;;;;;3.28;1.70;;;;;;;;;;5094804;28;20044;-77
2023/07/31 05:03:48;;;;;;;2.40;1.65;;;;;;;;;;5091267;28;20385;-77
2023/07/31 05:06:15;;;;;;;3.55;1.65;;;;;;;;;;5074195;28;20400;-77
2023/07/31 05:08:41;;;;;;;3.00;1.80;;;;;;;;;;5074589;28;20131;-77
2023/07/31 05:11:07;;;;;;;4.35;1.80;;;;;;;;;;5074371;28;20040;-77
2023/07/31 05:13:33;;;;;;;2.60;1.77;;;;;;;;;;5074686;28;20047;-77
2023/07/31 05:15:59;;;;;;;3.05;1.60;;;;;;;;;;5092164;28;20048;-76
2023/07/31 05:18:25;;;;;;;2.65;1.50;;;;;;;;;;5094437;28;20040;-76
2023/07/31 05:20:51;;;;;;;1.50;1.35;;;;;;;;;;5094497;28;20066;-76
2023/07/31 05:23:18;;;;;;;1.40;1.30;;;;;;;;;;5094694;28;20439;-76
2023/07/31 05:25:44;;;;;;;1.52;1.10;;;;;;;;;;5075908;28;20514;-78
2023/07/31 05:28:10;;;;;;;1.77;1.20;;;;;;;;;;5094823;28;20160;-77
2023/07/31 05:30:36;;;;;;;1.70;1.20;;;;;;;;;;5093906;28;20439;-78
2023/07/31 05:33:02;;;;;;;1.33;1.23;;;;;;;;;;5094227;28;20512;-77
2023/07/31 05:35:28;;;;;;;3.10;1.45;;;;;;;;;;5075787;28;20129;-76
2023/07/31 05:37:54;;;;;;;2.33;1.65;;;;;;;;;;5094191;28;20051;-77
2023/07/31 05:40:21;;;;;;;1.88;1.48;;;;;;;;;;5093746;28;21255;-77
2023/07/31 05:42:47;;;;;;;2.08;1.40;;;;;;;;;;5094234;28;20048;-77
2023/07/31 05:45:13;;;;;;;3.10;1.55;;;;;;;;;;5093636;28;20048;-76
2023/07/31 05:47:39;;;;;;;3.45;1.60;;;;;;;;;;5079765;28;20074;-77
2023/07/31 05:50:06;;;;;;;2.47;1.67;;;;;;;;;;5078243;28;20040;-76
2023/07/31 05:52:32;;;;;;;3.33;1.60;;;;;;;;;;5099152;28;20055;-76
2023/07/31 05:54:58;;;;;;;3.13;1.60;;;;;;;;;;5095099;28;20032;-77
2023/07/31 05:57:24;;;;;;;4.00;1.90;;;;;;;;;;5094501;28;20044;-76
2023/07/31 05:59:50;;;;;;;3.15;1.80;;;;;;;;;;5093889;28;20107;-76
2023/07/31 06:02:17;;;;;;;4.63;2.00;;;;;;;;;;5093289;28;20048;-76
2023/07/31 06:04:43;;;;;;;3.17;2.08;;;;;;;;;;5073172;28;20041;-77
2023/07/31 06:07:09;;;;;;;3.92;1.88;;;;;;;;;;5073514;28;20044;-76
2023/07/31 06:09:35;;;;;;;3.72;2.30;;;;;;;;;;5082758;28;20036;-76
2023/07/31 06:12:01;;;;;;;5.82;2.45;;;;;;;;;;5082696;28;20386;-72
2023/07/31 06:14:27;;;;;;;5.13;2.63;;;;;;;;;;5091656;28;20044;-72
2023/07/31 06:16:53;;;;;;;3.97;2.50;;;;;;;;;;5072928;28;20055;-72
2023/07/31 06:19:20;;;;;;;4.43;2.60;;;;;;;;;;5091139;28;20048;-72
2023/07/31 06:21:46;;;;;;;5.43;2.63;;;;;;;;;;5093072;28;20043;-73
2023/07/31 06:24:13;;;;;;;5.90;3.05;;;;;;;;;;5074642;28;20078;-74
2023/07/31 06:26:39;;;;;;;8.00;3.28;;;;;;;;;;5093335;28;20052;-73
2023/07/31 06:29:05;;;;;;;7.15;3.70;;;;;;;;;;5093237;28;20087;-73
2023/07/31 06:31:32;;;;;;;8.10;3.78;;;;;;;;;;5093259;28;20399;-73
2023/07/31 06:33:58;;;;;;;12.85;4.93;;;;;;;;;;5093519;28;20115;-73
2023/07/31 06:36:24;;;;;;;11.07;5.43;;;;;;;;;;5092883;28;20050;-73
2023/07/31 06:38:50;;;;;;;16.35;5.30;;;;;;;;;;5093031;28;20044;-73
2023/07/31 06:41:16;;;;;;;13.98;5.43;;;;;;;;;;5074881;28;20089;-74
2023/07/31 06:43:42;;;;;;;19.33;6.10;;;;;;;;;;5074945;28;20039;-74
2023/07/31 06:46:09;;;;;;;14.50;5.93;;;;;;;;;;5091942;28;20052;-74
2023/07/31 06:48:37;;;;;;;21.27;6.68;;;;;;;;;;5092397;28;20468;-74
2023/07/31 06:51:03;;;;;;;20.05;7.03;;;;;;;;;;5073883;28;20043;-73
2023/07/31 06:53:29;;;;;;;19.00;7.00;;;;;;;;;;5091241;28;20039;-72
2023/07/31 06:55:56;;;;;;;21.52;7.05;;;;;;;;;;5071388;28;20048;-73
2023/07/31 06:58:22;;;;;;;19.75;7.00;;;;;;;;;;5092076;28;20040;-72
2023/07/31 07:00:49;;;;;;;19.67;6.85;;;;;;;;;;5092492;28;20041;-71
2023/07/31 07:03:20;;;;;;;18.42;7.00;;;;;;;;;;5092319;28;20052;-72
2023/07/31 07:05:46;;;;;;;19.83;7.57;;;;;;;;;;5072938;28;20403;-73
2023/07/31 07:08:12;;;;;;;18.50;6.50;;;;;;;;;;5074377;28;20040;-73
2023/07/31 07:10:38;;;;;;;21.50;7.15;;;;;;;;;;5087858;28;20083;-74
2023/07/31 07:13:04;;;;;;;21.50;6.90;;;;;;;;;;5072347;28;20041;-73
2023/07/31 07:15:30;;;;;;;17.42;7.03;;;;;;;;;;5080214;28;20488;-74
2023/07/31 07:17:56;;;;;;;19.52;6.97;;;;;;;;;;5092673;28;20365;-73
2023/07/31 07:20:23;;;;;;;22.63;7.28;;;;;;;;;;5090354;28;20032;-74
2023/07/31 07:22:57;;;;;;;21.40;7.00;;;;;;;;;;5090726;28;20492;-74
2023/07/31 07:25:23;;;;;;;19.95;6.68;;;;;;;;;;5071435;28;20044;-72
2023/07/31 07:27:49;;;;;;;18.25;6.78;;;;;;;;;;5092605;28;20040;-72
2023/07/31 07:30:15;;;;;;;17.52;6.40;;;;;;;;;;5091618;28;20054;-73
2023/07/31 07:32:42;;;;;;;18.80;7.28;;;;;;;;;;5092448;28;20051;-74
2023/07/31 07:35:08;;;;;;;24.35;7.82;;;;;;;;;;5091733;28;20040;-74
2023/07/31 07:37:34;;;;;;;23.05;7.97;;;;;;;;;;5092161;28;20433;-73
2023/07/31 07:40:00;;;;;;;25.02;8.10;;;;;;;;;;5097929;28;20040;-74
2023/07/31 07:42:26;;;;;;;20.90;7.15;;;;;;;;;;5099380;28;20036;-74
2023/07/31 07:44:52;;;;;;;17.90;7.80;;;;;;;;;;5097992;28;20059;-74
2023/07/31 07:47:18;;;;;;;20.05;7.70;;;;;;;;;;5097756;28;20524;-72
2023/07/31 07:49:44;;;;;;;20.90;7.60;;;;;;;;;;5089369;28;20056;-71
2023/07/31 07:52:10;;;;;;;16.23;6.78;;;;;;;;;;5060461;28;20048;-71
2023/07/31 07:54:37;;;;;;;17.88;6.20;;;;;;;;;;5089864;28;20040;-73
2023/07/31 07:57:03;;;;;;;12.23;4.70;;;;;;;;;;5099104;28;20046;-72
2023/07/31 07:59:29;;;;;;;9.23;3.83;;;;;;;;;;5098502;28;20051;-72
2023/07/31 08:01:55;;;;;;;7.22;3.33;;;;;;;;;;5098725;28;20409;-72
2023/07/31 08:04:21;;;;;;;5.20;2.63;;;;;;;;;;5080038;28;20052;-73
2023/07/31 08:06:48;;;;;;;4.32;2.45;;;;;;;;;;5098785;28;20044;-73
2023/07/31 08:09:14;;;;;;;4.60;2.40;;;;;;;;;;5098951;28;20051;-73
2023/07/31 08:11:40;;;;;;;6.65;2.30;;;;;;;;;;5098890;28;20040;-73
2023/07/31 08:14:06;;;;;;;4.15;2.08;;;;;;;;;;5091874;28;20118;-74
2023/07/31 08:16:32;;;;;;;3.70;2.05;;;;;;;;;;5097038;28;20126;-74
2023/07/31 08:18:58;;;;;;;4.60;2.10;;;;;;;;;;5098070;28;20093;-74
2023/07/31 08:21:24;;;;;;;5.45;2.38;;;;;;;;;;5098525;28;20127;-74
2023/07/31 08:23:51;;;;;;;5.03;2.42;;;;;;;;;;5079830;28;20056;-74
2023/07/31 08:26:18;;;;;;;5.18;2.50;;;;;;;;;;5097733;28;20044;-73
2023/07/31 08:28:44;;;;;;;6.40;2.47;;;;;;;;;;5097627;28;20511;-73
2023/07/31 08:31:10;;;;;;;5.05;2.50;;;;;;;;;;5098399;28;20044;-73
2023/07/31 08:33:36;;;;;;;5.85;2.40;;;;;;;;;;5097567;28;20044;-72
2023/07/31 08:36:03;;;;;;;4.93;2.60;;;;;;;;;;5097748;28;20098;-73
2023/07/31 08:38:29;;;;;;;4.65;2.45;;;;;;;;;;5098663;28;20040;-74
2023/07/31 08:40:57;;;;;;;3.90;2.15;;;;;;;;;;5098439;28;20401;-74
2023/07/31 08:43:25;;;;;;;4.88;2.40;;;;;;;;;;5098784;28;20077;-73
2023/07/31 08:45:52;;;;;;;5.05;2.20;;;;;;;;;;5097600;28;20052;-74
2023/07/31 08:48:18;;;;;;;4.65;2.40;;;;;;;;;;5098380;28;20071;-73
2023/07/31 08:50:44;;;;;;;2.85;1.90;;;;;;;;;;5096067;28;20098;-73
2023/07/31 08:53:10;;;;;;;3.58;2.00;;;;;;;;;;5095088;28;20433;-74
2023/07/31 08:55:38;;;;;;;3.47;1.90;;;;;;;;;;5094833;28;20040;-74
2023/07/31 08:58:04;;;;;;;4.43;2.00;;;;;;;;;;5094045;28;20071;-74
2023/07/31 09:00:32;;;;;;;3.53;1.90;;;;;;;;;;5093789;28;20122;-74
2023/07/31 09:03:02;;;;;;;3.58;1.88;;;;;;;;;;5076732;28;20495;-74
2023/07/31 09:05:29;;;;;;;4.75;1.90;;;;;;;;;;5075144;28;20051;-73
2023/07/31 09:07:56;;;;;;;2.75;1.80;;;;;;;;;;5074105;28;20048;-73
2023/07/31 09:10:22;;;;;;;2.38;1.58;;;;;;;;;;5074016;28;20069;-74
2023/07/31 09:12:49;;;;;;;2.50;1.70;;;;;;;;;;5072244;28;20424;-73
2023/07/31 09:15:15;;;;;;;3.03;1.85;;;;;;;;;;5055893;28;20135;-73
2023/07/31 09:17:41;;;;;;;2.78;1.70;;;;;;;;;;5078548;28;20049;-73
2023/07/31 09:20:17;;;;;;;2.47;1.65;;;;;;;;;;5063174;28;20487;-72
2023/07/31 09:22:44;;;;;;;3.67;1.70;;;;;;;;;;5077445;28;20051;-72
2023/07/31 09:25:24;;;;;;;2.15;1.60;;;;;;;;;;5073987;28;20264;-73
2023/07/31 09:27:56;;;;;;;2.97;1.80;;;;;;;;;;5074795;28;20070;-73
2023/07/31 09:30:22;;;;;;;2.85;1.80;;;;;;;;;;5073979;28;20447;-73
2023/07/31 09:32:49;;;;;;;2.38;1.90;;;;;;;;;;5074106;28;20123;-73
2023/07/31 09:35:22;;;;;;;2.75;1.80;;;;;;;;;;5072217;28;20045;-72
2023/07/31 09:37:52;;;;;;;2.63;1.63;;;;;;;;;;5069651;28;20059;-73
2023/07/31 09:40:30;;;;;;;2.25;1.67;;;;;;;;;;5094227;28;20031;-73
2023/07/31 09:42:58;;;;;;;2.83;1.80;;;;;;;;;;5094283;28;20044;-74
2023/07/31 09:45:24;;;;;;;3.22;1.67;;;;;;;;;;5074797;28;20054;-73
2023/07/31 09:47:50;;;;;;;3.25;1.83;;;;;;;;;;5071912;28;20048;-74
2023/07/31 09:50:17;;;;;;;2.85;1.80;;;;;;;;;;5093606;28;20085;-72
2023/07/31 09:52:43;;;;;;;2.20;1.63;;;;;;;;;;5074806;28;20040;-72
2023/07/31 09:55:10;;;;;;;1.80;1.50;;;;;;;;;;5079428;28;20492;-71
2023/07/31 09:57:45;;;;;;;1.67;1.25;;;;;;;;;;5094025;28;20040;-72
2023/07/31 10:00:12;;;;;;;2.72;1.55;;;;;;;;;;5093575;28;20128;-72
2023/07/31 10:02:38;;;;;;;1.67;1.10;;;;;;;;;;5075325;28;20040;-73
2023/07/31 10:05:05;;;;;;;1.38;1.10;;;;;;;;;;5060913;28;20032;-73
2023/07/31 10:07:32;;;;;;;1.15;1.00;;;;;;;;;;5073226;28;20085;-72
2023/07/31 10:10:01;;;;;;;0.82;0.82;;;;;;;;;;5067106;28;20044;-77
2023/07/31 10:12:28;;;;;;;1.15;1.02;;;;;;;;;;5086113;28;20048;-78
2023/07/31 10:14:57;;;;;;;0.77;0.70;;;;;;;;;;5070765;28;20058;-77
2023/07/31 10:17:24;;;;;;;1.20;0.95;;;;;;;;;;5090557;28;20134;-78
2023/07/31 10:19:50;;;;;;;0.70;0.70;;;;;;;;;;5073627;28;20504;-78
2023/07/31 10:22:18;;;;;;;0.90;0.90;;;;;;;;;;5091568;28;20051;-78
2023/07/31 10:24:45;;;;;;;0.60;0.60;;;;;;;;;;5091541;28;20055;-78
2023/07/31 10:27:12;;;;;;;0.73;0.57;;;;;;;;;;5090043;28;20036;-78
2023/07/31 10:29:39;;;;;;;0.73;0.60;;;;;;;;;;5073057;28;20335;-78
2023/07/31 10:32:08;;;;;;;1.05;0.80;;;;;;;;;;5092038;28;20083;-78
2023/07/31 10:34:39;;;;;;;1.17;0.60;;;;;;;;;;5073114;28;20040;-79
2023/07/31 10:37:21;;;;;;;0.60;0.60;;;;;;;;;;5092092;28;20109;-77
2023/07/31 10:39:56;;;;;;;0.70;0.70;;;;;;;;;;5091594;28;20067;-78
2023/07/31 10:42:29;;;;;;;0.90;0.60;;;;;;;;;;5090586;28;20364;-77
2023/07/31 10:44:57;;;;;;;0.77;0.77;;;;;;;;;;5091553;28;20048;-73
2023/07/31 10:47:23;;;;;;;0.80;0.80;;;;;;;;;;5093136;28;20447;-74
2023/07/31 10:49:49;;;;;;;1.10;1.00;;;;;;;;;;5074644;28;20048;-73
2023/07/31 10:52:22;;;;;;;1.27;0.95;;;;;;;;;;5091692;28;20429;-73
2023/07/31 10:54:49;;;;;;;1.40;0.90;;;;;;;;;;5092535;28;20048;-75
2023/07/31 10:57:21;;;;;;;1.23;0.77;;;;;;;;;;5092746;28;20044;-73
2023/07/31 10:59:48;;;;;;;1.67;1.33;;;;;;;;;;5098501;28;20081;-73
2023/07/31 11:02:30;;;;;;;2.83;1.10;;;;;;;;;;5092613;28;20043;-73
2023/07/31 11:05:09;;;;;;;2.63;1.10;;;;;;;;;;5078752;28;20048;-74
2023/07/31 11:07:48;;;;;;;2.13;1.17;;;;;;;;;;5072572;28;20041;-73
2023/07/31 11:10:17;;;;;;;1.90;1.30;;;;;;;;;;5084119;28;20503;-73
2023/07/31 11:12:43;;;;;;;1.60;1.17;;;;;;;;;;5092546;28;20378;-74
2023/07/31 11:15:11;;;;;;;1.98;1.40;;;;;;;;;;5091546;28;20431;-74
2023/07/31 11:17:40;;;;;;;2.28;1.40;;;;;;;;;;5092296;28;20051;-74
2023/07/31 11:20:10;;;;;;;1.73;1.30;;;;;;;;;;5091841;28;20054;-74
2023/07/31 11:22:36;;;;;;;1.98;1.50;;;;;;;;;;5092379;28;20519;-74
2023/07/31 11:25:04;;;;;;;3.00;1.42;;;;;;;;;;5092100;28;20035;-74
2023/07/31 11:27:30;;;;;;;4.13;1.60;;;;;;;;;;5074025;28;20040;-74
2023/07/31 11:30:03;;;;;;;2.08;1.52;;;;;;;;;;5091972;28;20104;-73
2023/07/31 11:32:29;;;;;;;3.13;1.40;;;;;;;;;;5091112;28;20054;-78
2023/07/31 11:34:55;;;;;;;2.28;1.30;;;;;;;;;;5088335;28;20382;-78
2023/07/31 11:37:21;;;;;;;2.15;1.20;;;;;;;;;;5088573;28;20043;-77
2023/07/31 11:40:00;;;;;;;1.67;1.20;;;;;;;;;;5070098;28;20392;-78
2023/07/31 11:42:27;;;;;;;2.63;1.20;;;;;;;;;;5089275;28;20115;-78
2023/07/31 11:44:53;;;;;;;1.65;1.10;;;;;;;;;;5088473;28;20407;-79
2023/07/31 11:47:20;;;;;;;4.05;1.48;;;;;;;;;;5088572;28;20056;-78
2023/07/31 11:49:46;;;;;;;2.78;1.48;;;;;;;;;;5088928;28;20086;-78
2023/07/31 11:52:13;;;;;;;3.35;1.30;;;;;;;;;;5089202;28;20058;-79
2023/07/31 11:54:41;;;;;;;2.88;1.27;;;;;;;;;;5069947;28;20585;-79
2023/07/31 11:57:08;;;;;;;3.60;1.40;;;;;;;;;;5089348;28;20356;-79
2023/07/31 11:59:34;;;;;;;3.55;1.60;;;;;;;;;;5088788;28;20067;-78
2023/07/31 12:02:00;;;;;;;3.13;1.55;;;;;;;;;;5088510;28;20050;-78
2023/07/31 12:04:26;;;;;;;3.33;1.60;;;;;;;;;;5079363;28;20044;-78
2023/07/31 12:06:53;;;;;;;3.10;1.55;;;;;;;;;;5068820;28;20059;-72
2023/07/31 12:09:20;;;;;;;3.90;1.80;;;;;;;;;;5074022;28;20093;-75
2023/07/31 12:11:47;;;;;;;3.53;1.65;;;;;;;;;;5091821;28;20516;-74
2023/07/31 12:14:29;;;;;;;2.60;1.60;;;;;;;;;;5073962;28;20082;-74
2023/07/31 12:16:55;;;;;;;2.58;1.50;;;;;;;;;;5091783;28;20048;-74
2023/07/31 12:19:22;;;;;;;3.97;1.58;;;;;;;;;;5091004;28;20032;-74
2023/07/31 12:21:48;;;;;;;1.80;1.20;;;;;;;;;;5091281;28;20048;-74
2023/07/31 12:24:14;;;;;;;2.65;1.60;;;;;;;;;;5072874;28;20040;-75
2023/07/31 12:26:40;;;;;;;4.45;1.50;;;;;;;;;;5095398;28;20411;-75
2023/07/31 12:29:08;;;;;;;2.67;1.30;;;;;;;;;;5095545;28;20032;-74
2023/07/31 12:31:35;;;;;;;3.63;1.60;;;;;;;;;;5094642;28;20054;-74
2023/07/31 12:34:02;;;;;;;2.65;1.45;;;;;;;;;;5095561;28;20040;-74
2023/07/31 12:36:32;;;;;;;3.92;1.67;;;;;;;;;;5095179;28;20048;-74
2023/07/31 12:38:58;;;;;;;2.55;1.60;;;;;;;;;;5095392;28;20450;-74
2023/07/31 12:41:24;;;;;;;2.00;1.40;;;;;;;;;;5095445;28;20102;-74
2023/07/31 12:43:51;;;;;;;2.80;1.52;;;;;;;;;;5077398;28;20511;-74
2023/07/31 12:46:17;;;;;;;4.45;1.60;;;;;;;;;;5095413;28;20055;-74
2023/07/31 12:48:43;;;;;;;5.35;1.50;;;;;;;;;;5098895;28;20079;-74
2023/07/31 12:51:09;;;;;;;3.88;1.60;;;;;;;;;;5100904;28;20073;-74
2023/07/31 12:53:35;;;;;;;3.50;1.70;;;;;;;;;;5096180;28;20395;-74
2023/07/31 12:56:02;;;;;;;5.22;2.03;;;;;;;;;;5093499;28;20047;-74
2023/07/31 12:58:28;;;;;;;5.25;1.85;;;;;;;;;;5063979;28;20090;-74
2023/07/31 13:00:54;;;;;;;4.60;1.88;;;;;;;;;;5074337;28;20048;-74
2023/07/31 13:03:20;;;;;;;5.28;2.05;;;;;;;;;;5076422;28;20036;-74
2023/07/31 13:05:47;;;;;;;6.72;2.08;;;;;;;;;;5055591;28;20485;-74
2023/07/31 13:08:15;;;;;;;3.72;1.83;;;;;;;;;;5073124;28;20067;-74
2023/07/31 13:10:41;;;;;;;6.28;2.15;;;;;;;;;;5073312;28;20044;-74
2023/07/31 13:13:07;;;;;;;6.25;2.35;;;;;;;;;;5079758;28;20047;-70
2023/07/31 13:15:33;;;;;;;7.10;2.20;;;;;;;;;;5093794;28;20059;-70
2023/07/31 13:17:59;;;;;;;6.85;2.42;;;;;;;;;;5094640;28;20051;-70
2023/07/31 13:20:26;;;;;;;9.77;2.88;;;;;;;;;;5094776;28;20441;-71
2023/07/31 13:22:52;;;;;;;5.72;2.10;;;;;;;;;;5094465;28;20032;-75
2023/07/31 13:25:18;;;;;;;5.80;2.15;;;;;;;;;;5093569;28;20369;-75
2023/07/31 13:27:44;;;;;;;9.00;2.35;;;;;;;;;;5076327;28;20520;-75
2023/07/31 13:30:10;;;;;;;5.93;2.28;;;;;;;;;;5073938;28;20090;-74
2023/07/31 13:32:38;;;;;;;7.25;2.25;;;;;;;;;;5089668;28;20051;-74
2023/07/31 13:35:06;;;;;;;8.88;2.65;;;;;;;;;;5074528;28;20044;-74
2023/07/31 13:37:32;;;;;;;6.20;2.38;;;;;;;;;;5082353;28;20040;-75
2023/07/31 13:39:58;;;;;;;6.55;2.30;;;;;;;;;;5093629;28;20377;-74
2023/07/31 13:42:24;;;;;;;9.35;2.63;;;;;;;;;;5077377;28;20049;-74
2023/07/31 13:44:50;;;;;;;6.95;2.33;;;;;;;;;;5080297;28;20051;-74
2023/07/31 13:47:16;;;;;;;6.57;2.55;;;;;;;;;;5093370;28;20079;-74
2023/07/31 13:49:43;;;;;;;7.60;2.80;;;;;;;;;;5093390;28;20088;-74
2023/07/31 13:52:09;;;;;;;6.68;2.45;;;;;;;;;;5095264;28;20128;-76
2023/07/31 13:54:35;;;;;;;8.55;2.50;;;;;;;;;;5091556;28;20100;-74
2023/07/31 13:57:01;;;;;;;8.48;2.50;;;;;;;;;;5076149;28;20082;-74
2023/07/31 13:59:28;;;;;;;10.02;3.05;;;;;;;;;;5093403;28;20067;-74
2023/07/31 14:01:54;;;;;;;6.70;2.65;;;;;;;;;;5075911;28;20076;-74
2023/07/31 14:04:20;;;;;;;6.97;2.80;;;;;;;;;;5093977;28;20113;-75
2023/07/31 14:06:47;;;;;;;7.75;2.70;;;;;;;;;;5094349;28;20074;-74
2023/07/31 14:09:17;;;;;;;6.25;2.55;;;;;;;;;;5075240;28;20043;-76
2023/07/31 14:11:43;;;;;;;8.02;2.60;;;;;;;;;;5076119;28;20051;-74
2023/07/31 14:14:10;;;;;;;8.65;2.78;;;;;;;;;;5093951;28;20048;-74
2023/07/31 14:16:36;;;;;;;8.13;2.90;;;;;;;;;;5096658;28;20079;-75
2023/07/31 14:19:02;;;;;;;10.15;3.05;;;;;;;;;;5077479;28;20044;-74
2023/07/31 14:21:28;;;;;;;12.18;2.95;;;;;;;;;;5092836;28;20040;-75
2023/07/31 14:23:54;;;;;;;7.93;2.67;;;;;;;;;;5094169;28;20036;-76
2023/07/31 14:26:21;;;;;;;9.00;2.80;;;;;;;;;;5093424;28;20048;-75
2023/07/31 14:28:47;;;;;;;7.72;2.85;;;;;;;;;;5094110;28;20040;-73
2023/07/31 14:31:13;;;;;;;6.72;3.10;;;;;;;;;;5090315;28;20087;-74
2023/07/31 14:33:39;;;;;;;8.65;3.00;;;;;;;;;;5092405;28;20055;-75
2023/07/31 14:36:06;;;;;;;8.50;3.00;;;;;;;;;;5093416;28;20070;-74
2023/07/31 14:38:32;;;;;;;6.47;2.90;;;;;;;;;;5075601;28;20062;-74